sensor_id;sensor_type;location;lat;lon;timestamp;P1;P2;P0
77411;PMS7003;66484;49.968;19.140;2023-03-01T00:01:07;119.00;96.00;59.25
77411;PMS7003;66484;49.968;19.140;2023-03-01T00:03:34;106.00;86.75;54.75
77411;PMS7003;66484;49.968;19.140;2023-03-01T00:06:01;110.50;91.75;58.00
77411;PMS7003;66484;49.968;19.140;2023-03-01T00:08:27;111.75;94.50;62.00
77411;PMS7003;66484;49.968;19.140;2023-03-01T00:13:27;123.00;100.50;69.00
77411;PMS7003;66484;49.968;19.140;2023-03-01T00:15:53;118.50;100.25;63.00
77411;PMS7003;66484;49.968;19.140;2023-03-01T00:18:19;132.25;111.25;63.75
77411;PMS7003;66484;49.968;19.140;2023-03-01T00:20:55;119.50;107.00;64.00
77411;PMS7003;66484;49.968;19.140;2023-03-01T00:23:21;116.50;100.75;66.50
77411;PMS7003;66484;49.968;19.140;2023-03-01T00:25:48;109.25;82.75;51.25
77411;PMS7003;66484;49.968;19.140;2023-03-01T00:28:13;124.75;96.75;60.25
77411;PMS7003;66484;49.968;19.140;2023-03-01T00:30:40;114.25;97.75;64.75
77411;PMS7003;66484;49.968;19.140;2023-03-01T00:33:06;128.50;111.25;63.25
77411;PMS7003;66484;49.968;19.140;2023-03-01T00:35:32;115.00;96.75;52.00
77411;PMS7003;66484;49.968;19.140;2023-03-01T00:37:58;130.50;109.00;63.50
77411;PMS7003;66484;49.968;19.140;2023-03-01T00:40:25;116.50;103.00;67.00
77411;PMS7003;66484;49.968;19.140;2023-03-01T00:42:52;156.25;127.00;72.75
77411;PMS7003;66484;49.968;19.140;2023-03-01T00:45:18;142.00;114.50;70.25
77411;PMS7003;66484;49.968;19.140;2023-03-01T00:47:46;149.00;125.50;78.00
77411;PMS7003;66484;49.968;19.140;2023-03-01T00:50:12;134.00;109.75;70.00
77411;PMS7003;66484;49.968;19.140;2023-03-01T00:52:38;124.50;101.00;60.25
77411;PMS7003;66484;49.968;19.140;2023-03-01T00:55:04;113.75;99.75;62.00
77411;PMS7003;66484;49.968;19.140;2023-03-01T00:57:31;119.00;99.75;64.25
77411;PMS7003;66484;49.968;19.140;2023-03-01T00:59:57;115.00;94.00;61.25
77411;PMS7003;66484;49.968;19.140;2023-03-01T01:02:23;110.75;90.00;57.25
77411;PMS7003;66484;49.968;19.140;2023-03-01T01:04:49;125.75;106.25;61.75
77411;PMS7003;66484;49.968;19.140;2023-03-01T01:07:15;118.00;101.75;60.75
77411;PMS7003;66484;49.968;19.140;2023-03-01T01:09:41;117.25;90.75;58.00
77411;PMS7003;66484;49.968;19.140;2023-03-01T01:12:07;109.00;85.50;49.50
77411;PMS7003;66484;49.968;19.140;2023-03-01T01:14:34;122.50;113.50;72.00
77411;PMS7003;66484;49.968;19.140;2023-03-01T01:17:00;123.50;110.75;72.50
77411;PMS7003;66484;49.968;19.140;2023-03-01T01:19:27;119.25;98.75;61.25
77411;PMS7003;66484;49.968;19.140;2023-03-01T01:21:53;142.00;117.00;70.75
77411;PMS7003;66484;49.968;19.140;2023-03-01T01:24:19;140.75;127.25;75.00
77411;PMS7003;66484;49.968;19.140;2023-03-01T01:26:45;122.75;110.25;70.00
77411;PMS7003;66484;49.968;19.140;2023-03-01T01:29:12;112.00;89.25;60.50
77411;PMS7003;66484;49.968;19.140;2023-03-01T01:31:39;102.00;78.00;52.00
77411;PMS7003;66484;49.968;19.140;2023-03-01T01:34:07;117.25;93.50;58.00
77411;PMS7003;66484;49.968;19.140;2023-03-01T01:36:35;82.25;57.75;29.00
77411;PMS7003;66484;49.968;19.140;2023-03-01T01:39:02;106.75;90.00;56.50
77411;PMS7003;66484;49.968;19.140;2023-03-01T01:41:28;103.75;75.25;46.00
77411;PMS7003;66484;49.968;19.140;2023-03-01T01:46:49;118.75;105.50;70.50
77411;PMS7003;66484;49.968;19.140;2023-03-01T01:49:32;100.00;77.50;51.00
77411;PMS7003;66484;49.968;19.140;2023-03-01T01:52:10;116.50;104.25;63.75
77411;PMS7003;66484;49.968;19.140;2023-03-01T01:54:40;117.50;99.75;61.25
77411;PMS7003;66484;49.968;19.140;2023-03-01T01:57:19;108.50;85.25;52.50
77411;PMS7003;66484;49.968;19.140;2023-03-01T01:59:54;110.25;82.50;52.50
77411;PMS7003;66484;49.968;19.140;2023-03-01T02:02:23;103.25;78.50;51.25
77411;PMS7003;66484;49.968;19.140;2023-03-01T02:04:49;105.50;84.50;55.25
77411;PMS7003;66484;49.968;19.140;2023-03-01T02:07:22;97.75;77.50;51.50
77411;PMS7003;66484;49.968;19.140;2023-03-01T02:09:49;93.75;72.25;48.75
77411;PMS7003;66484;49.968;19.140;2023-03-01T02:12:18;93.00;71.75;50.50
77411;PMS7003;66484;49.968;19.140;2023-03-01T02:14:46;109.25;84.25;52.75
77411;PMS7003;66484;49.968;19.140;2023-03-01T02:17:12;107.50;85.00;51.50
77411;PMS7003;66484;49.968;19.140;2023-03-01T02:19:49;109.50;90.25;54.75
77411;PMS7003;66484;49.968;19.140;2023-03-01T02:22:32;114.50;91.00;54.00
77411;PMS7003;66484;49.968;19.140;2023-03-01T02:25:03;105.00;81.50;53.75
77411;PMS7003;66484;49.968;19.140;2023-03-01T02:30:28;102.00;77.75;49.00
77411;PMS7003;66484;49.968;19.140;2023-03-01T02:32:55;56.75;20.00;0.00
77411;PMS7003;66484;49.968;19.140;2023-03-01T02:35:32;114.50;90.25;55.75
77411;PMS7003;66484;49.968;19.140;2023-03-01T02:38:00;109.00;78.25;52.00
77411;PMS7003;66484;49.968;19.140;2023-03-01T02:40:28;112.50;93.25;61.50
77411;PMS7003;66484;49.968;19.140;2023-03-01T02:42:56;116.00;100.00;59.25
77411;PMS7003;66484;49.968;19.140;2023-03-01T02:45:23;131.25;118.25;74.75
77411;PMS7003;66484;49.968;19.140;2023-03-01T02:47:49;134.50;106.25;69.25
77411;PMS7003;66484;49.968;19.140;2023-03-01T02:50:19;108.00;88.00;54.25
77411;PMS7003;66484;49.968;19.140;2023-03-01T02:55:30;138.25;113.25;66.00
77411;PMS7003;66484;49.968;19.140;2023-03-01T02:57:56;136.50;117.75;74.25
77411;PMS7003;66484;49.968;19.140;2023-03-01T03:00:24;152.25;124.00;77.75
77411;PMS7003;66484;49.968;19.140;2023-03-01T03:02:54;139.25;124.75;66.00
77411;PMS7003;66484;49.968;19.140;2023-03-01T03:05:24;132.50;116.75;74.75
77411;PMS7003;66484;49.968;19.140;2023-03-01T03:07:54;121.50;108.50;61.75
77411;PMS7003;66484;49.968;19.140;2023-03-01T03:10:25;142.25;119.25;65.25
77411;PMS7003;66484;49.968;19.140;2023-03-01T03:12:56;145.00;127.00;71.75
77411;PMS7003;66484;49.968;19.140;2023-03-01T03:15:24;135.25;115.50;71.75
77411;PMS7003;66484;49.968;19.140;2023-03-01T03:17:50;108.00;81.75;46.00
77411;PMS7003;66484;49.968;19.140;2023-03-01T03:20:18;124.50;111.00;63.75
77411;PMS7003;66484;49.968;19.140;2023-03-01T03:22:50;118.25;102.50;60.50
77411;PMS7003;66484;49.968;19.140;2023-03-01T03:25:17;112.25;94.25;57.75
77411;PMS7003;66484;49.968;19.140;2023-03-01T03:27:44;113.75;93.25;58.75
77411;PMS7003;66484;49.968;19.140;2023-03-01T03:30:12;115.75;98.50;63.50
77411;PMS7003;66484;49.968;19.140;2023-03-01T03:32:40;120.25;108.00;62.75
77411;PMS7003;66484;49.968;19.140;2023-03-01T03:35:08;109.50;90.75;56.00
77411;PMS7003;66484;49.968;19.140;2023-03-01T03:37:38;112.00;95.25;62.75
77411;PMS7003;66484;49.968;19.140;2023-03-01T03:40:24;117.50;104.25;64.75
77411;PMS7003;66484;49.968;19.140;2023-03-01T03:42:51;112.00;83.00;49.00
77411;PMS7003;66484;49.968;19.140;2023-03-01T03:45:17;109.50;88.75;52.00
77411;PMS7003;66484;49.968;19.140;2023-03-01T03:47:43;115.00;93.00;58.50
77411;PMS7003;66484;49.968;19.140;2023-03-01T03:50:10;113.50;90.25;57.75
77411;PMS7003;66484;49.968;19.140;2023-03-01T03:52:38;100.00;78.75;51.00
77411;PMS7003;66484;49.968;19.140;2023-03-01T03:55:04;112.25;94.50;54.50
77411;PMS7003;66484;49.968;19.140;2023-03-01T03:57:35;102.00;76.50;49.50
77411;PMS7003;66484;49.968;19.140;2023-03-01T04:00:02;112.00;91.25;55.50
77411;PMS7003;66484;49.968;19.140;2023-03-01T04:02:30;111.25;94.00;56.75
77411;PMS7003;66484;49.968;19.140;2023-03-01T04:04:57;106.50;87.75;57.00
77411;PMS7003;66484;49.968;19.140;2023-03-01T04:07:23;113.25;89.00;56.50
77411;PMS7003;66484;49.968;19.140;2023-03-01T04:09:49;97.25;77.50;56.50
77411;PMS7003;66484;49.968;19.140;2023-03-01T04:12:15;112.25;88.75;56.50
77411;PMS7003;66484;49.968;19.140;2023-03-01T04:14:46;117.50;97.50;58.00
77411;PMS7003;66484;49.968;19.140;2023-03-01T04:17:11;115.25;93.75;57.00
77411;PMS7003;66484;49.968;19.140;2023-03-01T04:19:38;119.75;106.75;59.00
77411;PMS7003;66484;49.968;19.140;2023-03-01T04:22:04;123.25;102.50;63.75
77411;PMS7003;66484;49.968;19.140;2023-03-01T04:24:35;112.25;98.50;63.00
77411;PMS7003;66484;49.968;19.140;2023-03-01T04:27:01;135.75;111.50;73.50
77411;PMS7003;66484;49.968;19.140;2023-03-01T04:29:27;114.00;94.50;52.00
77411;PMS7003;66484;49.968;19.140;2023-03-01T04:31:53;114.75;91.25;57.75
77411;PMS7003;66484;49.968;19.140;2023-03-01T04:34:19;109.50;84.50;52.00
77411;PMS7003;66484;49.968;19.140;2023-03-01T04:36:45;118.50;103.50;68.75
77411;PMS7003;66484;49.968;19.140;2023-03-01T04:39:11;114.75;88.75;61.75
77411;PMS7003;66484;49.968;19.140;2023-03-01T04:41:38;119.25;99.50;64.50
77411;PMS7003;66484;49.968;19.140;2023-03-01T04:44:05;106.25;83.25;49.00
77411;PMS7003;66484;49.968;19.140;2023-03-01T04:46:31;117.00;100.25;63.00
77411;PMS7003;66484;49.968;19.140;2023-03-01T04:48:57;117.00;102.25;64.00
77411;PMS7003;66484;49.968;19.140;2023-03-01T04:51:23;132.75;107.25;67.75
77411;PMS7003;66484;49.968;19.140;2023-03-01T04:53:49;117.50;101.75;61.00
77411;PMS7003;66484;49.968;19.140;2023-03-01T04:56:15;116.50;103.50;68.25
77411;PMS7003;66484;49.968;19.140;2023-03-01T04:58:43;125.00;99.75;67.00
77411;PMS7003;66484;49.968;19.140;2023-03-01T05:01:10;118.75;100.50;58.25
77411;PMS7003;66484;49.968;19.140;2023-03-01T05:03:46;138.50;122.00;71.25
77411;PMS7003;66484;49.968;19.140;2023-03-01T05:06:14;125.25;111.50;67.75
77411;PMS7003;66484;49.968;19.140;2023-03-01T05:08:40;134.00;120.75;72.25
77411;PMS7003;66484;49.968;19.140;2023-03-01T05:11:07;124.50;111.75;69.50
77411;PMS7003;66484;49.968;19.140;2023-03-01T05:13:35;122.25;110.25;65.50
77411;PMS7003;66484;49.968;19.140;2023-03-01T05:16:02;124.50;102.50;61.00
77411;PMS7003;66484;49.968;19.140;2023-03-01T05:18:30;128.25;113.50;74.75
77411;PMS7003;66484;49.968;19.140;2023-03-01T05:21:04;121.75;104.25;62.50
77411;PMS7003;66484;49.968;19.140;2023-03-01T05:23:33;113.50;87.75;49.50
77411;PMS7003;66484;49.968;19.140;2023-03-01T05:26:00;149.50;125.25;79.75
77411;PMS7003;66484;49.968;19.140;2023-03-01T05:28:27;125.75;111.25;63.50
77411;PMS7003;66484;49.968;19.140;2023-03-01T05:30:56;136.75;118.75;71.25
77411;PMS7003;66484;49.968;19.140;2023-03-01T05:33:22;125.50;105.25;67.25
77411;PMS7003;66484;49.968;19.140;2023-03-01T05:35:49;132.50;103.25;60.00
77411;PMS7003;66484;49.968;19.140;2023-03-01T05:38:17;138.50;108.00;68.00
77411;PMS7003;66484;49.968;19.140;2023-03-01T05:40:44;137.25;124.50;82.50
77411;PMS7003;66484;49.968;19.140;2023-03-01T05:43:14;141.25;125.25;77.75
77411;PMS7003;66484;49.968;19.140;2023-03-01T05:45:41;157.75;130.50;79.50
77411;PMS7003;66484;49.968;19.140;2023-03-01T05:48:09;154.50;122.75;68.50
77411;PMS7003;66484;49.968;19.140;2023-03-01T05:50:36;143.25;128.00;84.50
77411;PMS7003;66484;49.968;19.140;2023-03-01T05:53:06;120.25;103.50;67.50
77411;PMS7003;66484;49.968;19.140;2023-03-01T05:55:35;147.25;129.50;79.00
77411;PMS7003;66484;49.968;19.140;2023-03-01T05:58:02;145.75;121.00;79.50
77411;PMS7003;66484;49.968;19.140;2023-03-01T06:00:30;170.50;133.25;80.00
77411;PMS7003;66484;49.968;19.140;2023-03-01T06:02:57;117.50;107.00;69.75
77411;PMS7003;66484;49.968;19.140;2023-03-01T06:05:23;142.75;124.00;75.50
77411;PMS7003;66484;49.968;19.140;2023-03-01T06:07:50;159.50;139.25;84.25
77411;PMS7003;66484;49.968;19.140;2023-03-01T06:10:16;144.25;121.75;79.25
77411;PMS7003;66484;49.968;19.140;2023-03-01T06:12:44;146.75;124.50;84.00
77411;PMS7003;66484;49.968;19.140;2023-03-01T06:15:13;158.50;132.75;84.25
77411;PMS7003;66484;49.968;19.140;2023-03-01T06:17:41;121.75;108.75;59.00
77411;PMS7003;66484;49.968;19.140;2023-03-01T06:20:18;128.25;116.25;79.25
77411;PMS7003;66484;49.968;19.140;2023-03-01T06:22:46;159.50;131.50;70.00
77411;PMS7003;66484;49.968;19.140;2023-03-01T06:25:13;128.75;106.75;65.75
77411;PMS7003;66484;49.968;19.140;2023-03-01T06:27:40;158.50;139.50;85.75
77411;PMS7003;66484;49.968;19.140;2023-03-01T06:30:07;145.50;122.50;67.00
77411;PMS7003;66484;49.968;19.140;2023-03-01T06:32:36;173.50;152.25;90.25
77411;PMS7003;66484;49.968;19.140;2023-03-01T06:35:03;170.25;136.50;88.25
77411;PMS7003;66484;49.968;19.140;2023-03-01T06:37:30;162.75;136.50;73.25
77411;PMS7003;66484;49.968;19.140;2023-03-01T06:39:56;174.00;145.00;88.75
77411;PMS7003;66484;49.968;19.140;2023-03-01T06:42:22;161.75;133.00;78.75
77411;PMS7003;66484;49.968;19.140;2023-03-01T06:44:49;163.50;146.25;84.75
77411;PMS7003;66484;49.968;19.140;2023-03-01T06:47:15;146.75;130.50;76.50
77411;PMS7003;66484;49.968;19.140;2023-03-01T06:49:41;135.00;117.25;69.50
77411;PMS7003;66484;49.968;19.140;2023-03-01T06:52:07;140.75;127.75;76.50
77411;PMS7003;66484;49.968;19.140;2023-03-01T06:54:33;133.75;122.50;74.25
77411;PMS7003;66484;49.968;19.140;2023-03-01T06:56:59;128.50;102.50;61.25
77411;PMS7003;66484;49.968;19.140;2023-03-01T06:59:24;165.00;137.00;79.50
77411;PMS7003;66484;49.968;19.140;2023-03-01T07:01:50;131.25;112.00;62.50
77411;PMS7003;66484;49.968;19.140;2023-03-01T07:04:17;134.25;119.00;72.00
77411;PMS7003;66484;49.968;19.140;2023-03-01T07:06:43;133.50;119.50;69.75
77411;PMS7003;66484;49.968;19.140;2023-03-01T07:09:08;126.25;117.25;70.00
77411;PMS7003;66484;49.968;19.140;2023-03-01T07:11:35;139.00;117.50;68.00
77411;PMS7003;66484;49.968;19.140;2023-03-01T07:14:01;118.25;98.50;60.75
77411;PMS7003;66484;49.968;19.140;2023-03-01T07:16:27;132.75;116.50;72.75
77411;PMS7003;66484;49.968;19.140;2023-03-01T07:18:52;114.25;92.75;54.75
77411;PMS7003;66484;49.968;19.140;2023-03-01T07:21:19;117.50;97.25;63.50
77411;PMS7003;66484;49.968;19.140;2023-03-01T07:23:46;132.75;110.00;64.25
77411;PMS7003;66484;49.968;19.140;2023-03-01T07:26:13;150.75;124.00;75.00
77411;PMS7003;66484;49.968;19.140;2023-03-01T07:28:39;120.75;105.25;66.75
77411;PMS7003;66484;49.968;19.140;2023-03-01T07:31:05;117.75;99.00;64.00
77411;PMS7003;66484;49.968;19.140;2023-03-01T07:33:31;97.00;70.50;30.00
77411;PMS7003;66484;49.968;19.140;2023-03-01T07:35:59;120.75;93.25;53.75
77411;PMS7003;66484;49.968;19.140;2023-03-01T07:38:26;114.25;82.50;49.50
77411;PMS7003;66484;49.968;19.140;2023-03-01T07:40:52;121.75;109.00;64.00
77411;PMS7003;66484;49.968;19.140;2023-03-01T07:43:18;117.00;100.75;62.00
77411;PMS7003;66484;49.968;19.140;2023-03-01T07:45:46;114.75;92.75;55.25
77411;PMS7003;66484;49.968;19.140;2023-03-01T07:48:11;117.75;93.50;55.50
77411;PMS7003;66484;49.968;19.140;2023-03-01T07:50:37;105.00;77.25;47.75
77411;PMS7003;66484;49.968;19.140;2023-03-01T07:53:03;113.25;90.75;58.25
77411;PMS7003;66484;49.968;19.140;2023-03-01T07:55:30;114.50;95.75;59.50
77411;PMS7003;66484;49.968;19.140;2023-03-01T07:57:56;113.50;88.00;52.00
77411;PMS7003;66484;49.968;19.140;2023-03-01T08:00:22;109.75;87.50;55.50
77411;PMS7003;66484;49.968;19.140;2023-03-01T08:02:48;110.50;88.75;56.25
77411;PMS7003;66484;49.968;19.140;2023-03-01T08:05:14;100.25;75.75;46.00
77411;PMS7003;66484;49.968;19.140;2023-03-01T08:07:40;89.75;71.75;47.25
77411;PMS7003;66484;49.968;19.140;2023-03-01T08:10:06;89.75;70.50;46.50
77411;PMS7003;66484;49.968;19.140;2023-03-01T08:12:32;100.00;78.50;51.00
77411;PMS7003;66484;49.968;19.140;2023-03-01T08:14:58;80.25;60.75;39.75
77411;PMS7003;66484;49.968;19.140;2023-03-01T08:17:24;79.00;61.25;42.00
77411;PMS7003;66484;49.968;19.140;2023-03-01T08:19:50;81.75;63.25;42.75
77411;PMS7003;66484;49.968;19.140;2023-03-01T08:22:16;85.00;68.50;42.75
77411;PMS7003;66484;49.968;19.140;2023-03-01T08:24:42;82.00;59.50;37.50
77411;PMS7003;66484;49.968;19.140;2023-03-01T08:27:07;68.00;48.50;26.00
77411;PMS7003;66484;49.968;19.140;2023-03-01T08:29:34;89.75;66.50;43.25
77411;PMS7003;66484;49.968;19.140;2023-03-01T08:32:00;84.00;59.00;39.75
77411;PMS7003;66484;49.968;19.140;2023-03-01T08:34:26;78.00;62.50;42.25
77411;PMS7003;66484;49.968;19.140;2023-03-01T08:36:52;81.75;57.50;38.25
77411;PMS7003;66484;49.968;19.140;2023-03-01T08:39:18;77.75;59.75;39.75
77411;PMS7003;66484;49.968;19.140;2023-03-01T08:41:46;88.50;64.50;43.00
77411;PMS7003;66484;49.968;19.140;2023-03-01T08:44:13;85.00;66.75;43.50
77411;PMS7003;66484;49.968;19.140;2023-03-01T08:46:42;74.00;58.75;39.00
77411;PMS7003;66484;49.968;19.140;2023-03-01T08:49:10;71.75;55.50;36.00
77411;PMS7003;66484;49.968;19.140;2023-03-01T08:51:38;70.50;56.75;36.00
77411;PMS7003;66484;49.968;19.140;2023-03-01T08:54:04;98.00;70.25;45.50
77411;PMS7003;66484;49.968;19.140;2023-03-01T08:56:32;78.75;60.50;40.00
77411;PMS7003;66484;49.968;19.140;2023-03-01T08:58:58;83.75;67.00;44.75
77411;PMS7003;66484;49.968;19.140;2023-03-01T09:01:24;79.00;61.00;38.25
77411;PMS7003;66484;49.968;19.140;2023-03-01T09:03:50;83.75;67.00;42.75
77411;PMS7003;66484;49.968;19.140;2023-03-01T09:06:16;83.75;62.25;41.00
77411;PMS7003;66484;49.968;19.140;2023-03-01T09:08:43;65.00;51.50;27.25
77411;PMS7003;66484;49.968;19.140;2023-03-01T09:11:11;78.50;60.50;42.50
77411;PMS7003;66484;49.968;19.140;2023-03-01T09:13:39;81.25;62.75;42.50
77411;PMS7003;66484;49.968;19.140;2023-03-01T09:16:06;75.50;60.00;39.75
77411;PMS7003;66484;49.968;19.140;2023-03-01T09:18:33;66.00;52.00;35.00
77411;PMS7003;66484;49.968;19.140;2023-03-01T09:23:35;72.00;52.25;34.50
77411;PMS7003;66484;49.968;19.140;2023-03-01T09:26:05;42.75;39.50;29.50
77411;PMS7003;66484;49.968;19.140;2023-03-01T09:28:35;64.00;50.50;34.00
77411;PMS7003;66484;49.968;19.140;2023-03-01T09:31:01;66.25;51.00;34.00
77411;PMS7003;66484;49.968;19.140;2023-03-01T09:33:29;31.75;29.00;16.50
77411;PMS7003;66484;49.968;19.140;2023-03-01T09:35:56;41.00;32.25;23.75
77411;PMS7003;66484;49.968;19.140;2023-03-01T09:38:33;41.00;36.75;25.25
77411;PMS7003;66484;49.968;19.140;2023-03-01T09:41:02;45.50;34.25;24.75
77411;PMS7003;66484;49.968;19.140;2023-03-01T09:46:13;52.25;43.25;29.00
77411;PMS7003;66484;49.968;19.140;2023-03-01T09:48:48;38.25;38.25;24.00
77411;PMS7003;66484;49.968;19.140;2023-03-01T09:51:27;34.25;33.50;28.25
77411;PMS7003;66484;49.968;19.140;2023-03-01T09:53:56;59.25;45.00;28.75
77411;PMS7003;66484;49.968;19.140;2023-03-01T09:56:27;36.00;33.75;23.50
77411;PMS7003;66484;49.968;19.140;2023-03-01T10:10:04;45.25;39.50;28.25
77411;PMS7003;66484;49.968;19.140;2023-03-01T10:12:34;41.75;34.75;25.75
77411;PMS7003;66484;49.968;19.140;2023-03-01T10:17:46;46.50;41.00;30.25
77411;PMS7003;66484;49.968;19.140;2023-03-01T10:22:48;37.50;33.25;26.75
77411;PMS7003;66484;49.968;19.140;2023-03-01T10:25:31;46.75;35.00;27.25
77411;PMS7003;66484;49.968;19.140;2023-03-01T10:28:17;43.50;32.00;25.25
77411;PMS7003;66484;49.968;19.140;2023-03-01T10:30:45;49.00;44.25;28.75
77411;PMS7003;66484;49.968;19.140;2023-03-01T10:33:25;39.50;37.00;26.00
77411;PMS7003;66484;49.968;19.140;2023-03-01T10:35:53;39.00;31.50;19.75
77411;PMS7003;66484;49.968;19.140;2023-03-01T10:38:19;24.50;19.75;17.00
77411;PMS7003;66484;49.968;19.140;2023-03-01T10:40:50;40.50;30.25;22.00
77411;PMS7003;66484;49.968;19.140;2023-03-01T10:43:19;38.25;29.75;23.00
77411;PMS7003;66484;49.968;19.140;2023-03-01T10:45:45;42.00;34.00;25.75
77411;PMS7003;66484;49.968;19.140;2023-03-01T10:48:15;37.50;32.00;24.00
77411;PMS7003;66484;49.968;19.140;2023-03-01T10:50:42;32.00;28.75;20.75
77411;PMS7003;66484;49.968;19.140;2023-03-01T10:55:57;45.00;41.00;27.75
77411;PMS7003;66484;49.968;19.140;2023-03-01T10:58:25;19.00;19.00;15.00
77411;PMS7003;66484;49.968;19.140;2023-03-01T11:00:58;29.25;23.25;19.25
77411;PMS7003;66484;49.968;19.140;2023-03-01T11:03:31;28.00;27.50;19.00
77411;PMS7003;66484;49.968;19.140;2023-03-01T11:08:41;33.00;28.50;21.75
77411;PMS7003;66484;49.968;19.140;2023-03-01T11:16:18;17.25;14.50;9.25
77411;PMS7003;66484;49.968;19.140;2023-03-01T11:19:13;25.25;24.25;17.00
77411;PMS7003;66484;49.968;19.140;2023-03-01T11:24:36;25.25;22.75;17.50
77411;PMS7003;66484;49.968;19.140;2023-03-01T11:27:06;24.50;17.75;16.75
77411;PMS7003;66484;49.968;19.140;2023-03-01T11:29:44;31.75;28.25;22.50
77411;PMS7003;66484;49.968;19.140;2023-03-01T11:32:13;35.50;27.25;20.25
77411;PMS7003;66484;49.968;19.140;2023-03-01T11:34:54;22.50;14.25;11.75
77411;PMS7003;66484;49.968;19.140;2023-03-01T11:42:46;24.50;22.50;19.50
77411;PMS7003;66484;49.968;19.140;2023-03-01T11:45:15;26.25;20.25;17.50
77411;PMS7003;66484;49.968;19.140;2023-03-01T11:50:47;35.00;29.75;21.00
77411;PMS7003;66484;49.968;19.140;2023-03-01T11:56:24;34.50;31.00;26.75
77411;PMS7003;66484;49.968;19.140;2023-03-01T12:04:53;36.00;29.50;20.75
77411;PMS7003;66484;49.968;19.140;2023-03-01T12:12:37;35.00;29.50;22.75
77411;PMS7003;66484;49.968;19.140;2023-03-01T12:18:17;32.50;31.00;23.25
77411;PMS7003;66484;49.968;19.140;2023-03-01T12:40:03;37.75;34.00;24.75
77411;PMS7003;66484;49.968;19.140;2023-03-01T12:42:46;42.00;37.25;26.00
77411;PMS7003;66484;49.968;19.140;2023-03-01T12:48:01;45.50;41.50;26.75
77411;PMS7003;66484;49.968;19.140;2023-03-01T12:50:41;47.00;39.00;24.50
77411;PMS7003;66484;49.968;19.140;2023-03-01T12:53:53;25.75;20.75;11.00
77411;PMS7003;66484;49.968;19.140;2023-03-01T12:56:05;42.50;34.75;26.00
77411;PMS7003;66484;49.968;19.140;2023-03-01T12:58:34;27.75;26.25;20.50
77411;PMS7003;66484;49.968;19.140;2023-03-01T13:01:16;39.50;35.75;26.00
77411;PMS7003;66484;49.968;19.140;2023-03-01T13:09:24;34.00;32.50;22.25
77411;PMS7003;66484;49.968;19.140;2023-03-01T13:12:02;42.25;39.25;25.25
77411;PMS7003;66484;49.968;19.140;2023-03-01T13:16:57;45.50;40.75;29.00
77411;PMS7003;66484;49.968;19.140;2023-03-01T13:19:24;46.50;38.50;26.00
77411;PMS7003;66484;49.968;19.140;2023-03-01T13:21:52;44.75;34.25;24.50
77411;PMS7003;66484;49.968;19.140;2023-03-01T13:29:49;41.75;38.50;27.50
77411;PMS7003;66484;49.968;19.140;2023-03-01T13:32:22;32.25;30.00;25.25
77411;PMS7003;66484;49.968;19.140;2023-03-01T13:35:06;34.75;33.00;26.00
77411;PMS7003;66484;49.968;19.140;2023-03-01T13:37:46;35.00;31.25;23.50
77411;PMS7003;66484;49.968;19.140;2023-03-01T13:42:44;35.00;31.25;20.25
77411;PMS7003;66484;49.968;19.140;2023-03-01T13:47:45;38.75;35.25;25.75
77411;PMS7003;66484;49.968;19.140;2023-03-01T13:50:18;39.50;34.75;22.25
77411;PMS7003;66484;49.968;19.140;2023-03-01T13:52:57;58.25;45.25;30.25
77411;PMS7003;66484;49.968;19.140;2023-03-01T13:55:42;41.00;38.50;25.75
77411;PMS7003;66484;49.968;19.140;2023-03-01T13:58:25;43.25;36.50;25.50
77411;PMS7003;66484;49.968;19.140;2023-03-01T14:01:00;46.00;38.50;28.50
77411;PMS7003;66484;49.968;19.140;2023-03-01T14:03:30;42.25;38.50;28.00
77411;PMS7003;66484;49.968;19.140;2023-03-01T14:06:06;38.50;35.25;26.00
77411;PMS7003;66484;49.968;19.140;2023-03-01T14:08:34;31.25;28.50;23.75
77411;PMS7003;66484;49.968;19.140;2023-03-01T14:19:26;35.25;28.25;21.25
77411;PMS7003;66484;49.968;19.140;2023-03-01T14:22:00;38.75;33.75;25.75
77411;PMS7003;66484;49.968;19.140;2023-03-01T14:24:49;33.25;30.00;23.75
77411;PMS7003;66484;49.968;19.140;2023-03-01T14:27:16;31.00;27.00;23.50
77411;PMS7003;66484;49.968;19.140;2023-03-01T14:29:42;38.00;29.75;22.00
77411;PMS7003;66484;49.968;19.140;2023-03-01T14:32:27;34.50;30.00;21.75
77411;PMS7003;66484;49.968;19.140;2023-03-01T14:34:55;34.50;29.25;20.00
77411;PMS7003;66484;49.968;19.140;2023-03-01T14:37:32;29.00;26.00;18.00
77411;PMS7003;66484;49.968;19.140;2023-03-01T14:39:59;25.00;21.00;14.00
77411;PMS7003;66484;49.968;19.140;2023-03-01T14:42:29;39.75;36.50;23.75
77411;PMS7003;66484;49.968;19.140;2023-03-01T14:44:59;27.25;25.75;20.00
77411;PMS7003;66484;49.968;19.140;2023-03-01T14:47:28;31.50;28.50;21.75
77411;PMS7003;66484;49.968;19.140;2023-03-01T14:50:08;25.25;24.75;21.25
77411;PMS7003;66484;49.968;19.140;2023-03-01T14:52:56;30.00;24.00;16.25
77411;PMS7003;66484;49.968;19.140;2023-03-01T14:55:30;30.25;27.75;21.75
77411;PMS7003;66484;49.968;19.140;2023-03-01T14:58:05;30.75;30.25;23.50
77411;PMS7003;66484;49.968;19.140;2023-03-01T15:00:35;30.25;30.00;20.75
77411;PMS7003;66484;49.968;19.140;2023-03-01T15:03:05;31.25;26.00;21.00
77411;PMS7003;66484;49.968;19.140;2023-03-01T15:05:39;36.75;29.25;22.00
77411;PMS7003;66484;49.968;19.140;2023-03-01T15:08:07;35.00;30.25;20.50
77411;PMS7003;66484;49.968;19.140;2023-03-01T15:10:54;30.25;25.75;21.00
77411;PMS7003;66484;49.968;19.140;2023-03-01T15:13:28;36.00;30.00;23.75
77411;PMS7003;66484;49.968;19.140;2023-03-01T15:18:52;30.50;29.00;23.75
77411;PMS7003;66484;49.968;19.140;2023-03-01T15:21:33;29.25;26.75;22.75
77411;PMS7003;66484;49.968;19.140;2023-03-01T15:24:05;25.50;24.25;15.00
77411;PMS7003;66484;49.968;19.140;2023-03-01T15:26:51;25.50;17.50;13.00
77411;PMS7003;66484;49.968;19.140;2023-03-01T15:29:25;30.75;23.25;14.75
77411;PMS7003;66484;49.968;19.140;2023-03-01T15:31:59;20.75;19.50;17.00
77411;PMS7003;66484;49.968;19.140;2023-03-01T15:34:30;38.75;32.00;21.75
77411;PMS7003;66484;49.968;19.140;2023-03-01T15:36:58;29.25;27.50;20.75
77411;PMS7003;66484;49.968;19.140;2023-03-01T15:39:30;31.25;27.25;20.75